sensor_id;sensor_type;location;lat;lon;timestamp;pressure;altitude;pressure_sealevel;temperature;humidity
64644;BME280;51056;50.330;7.914;2023-07-31T00:00:54;100374.72;;;17.36;89.72
64644;BME280;51056;50.330;7.914;2023-07-31T00:03:58;100371.47;;;17.32;90.47
64644;BME280;51056;50.330;7.914;2023-07-31T00:07:02;100369.28;;;17.37;90.99
64644;BME280;51056;50.330;7.914;2023-07-31T00:10:07;100368.38;;;17.27;91.65
64644;BME280;51056;50.330;7.914;2023-07-31T00:13:10;100372.84;;;17.27;92.65
64644;BME280;51056;50.330;7.914;2023-07-31T00:16:13;100374.75;;;17.25;92.22
64644;BME280;51056;50.330;7.914;2023-07-31T00:19:17;100374.19;;;17.21;92.71
64644;BME280;51056;50.330;7.914;2023-07-31T00:22:20;100367.72;;;17.14;93.59
64644;BME280;51056;50.330;7.914;2023-07-31T00:25:24;100358.50;;;17.08;94.03
64644;BME280;51056;50.330;7.914;2023-07-31T00:28:28;100359.81;;;17.14;94.38
64644;BME280;51056;50.330;7.914;2023-07-31T00:31:32;100349.16;;;17.04;95.39
64644;BME280;51056;50.330;7.914;2023-07-31T00:34:35;100344.81;;;17.03;95.38
64644;BME280;51056;50.330;7.914;2023-07-31T00:37:39;100342.16;;;17.14;94.54
64644;BME280;51056;50.330;7.914;2023-07-31T00:40:42;100342.41;;;17.11;94.68
64644;BME280;51056;50.330;7.914;2023-07-31T00:43:46;100333.22;;;16.94;87.65
64644;BME280;51056;50.330;7.914;2023-07-31T00:46:49;100341.00;;;16.96;93.01
64644;BME280;51056;50.330;7.914;2023-07-31T00:49:53;100337.03;;;17.02;93.68
64644;BME280;51056;50.330;7.914;2023-07-31T00:52:57;100328.63;;;16.96;93.24
64644;BME280;51056;50.330;7.914;2023-07-31T00:56:03;100328.72;;;17.06;88.83
64644;BME280;51056;50.330;7.914;2023-07-31T00:59:07;100326.38;;;17.24;84.03
64644;BME280;51056;50.330;7.914;2023-07-31T01:02:10;100333.78;;;17.30;88.67
64644;BME280;51056;50.330;7.914;2023-07-31T01:05:14;100330.63;;;17.36;89.73
64644;BME280;51056;50.330;7.914;2023-07-31T01:08:42;100317.22;;;17.28;89.97
64644;BME280;51056;50.330;7.914;2023-07-31T01:11:52;100318.63;;;17.32;88.26
64644;BME280;51056;50.330;7.914;2023-07-31T01:15:02;100321.63;;;17.39;86.53
64644;BME280;51056;50.330;7.914;2023-07-31T01:18:06;100332.56;;;17.34;89.10
64644;BME280;51056;50.330;7.914;2023-07-31T01:21:28;100332.03;;;17.40;88.34
64644;BME280;51056;50.330;7.914;2023-07-31T01:28:19;100305.72;;;17.60;75.23
64644;BME280;51056;50.330;7.914;2023-07-31T01:31:24;100309.00;;;17.73;75.65
64644;BME280;51056;50.330;7.914;2023-07-31T01:34:30;100314.34;;;17.83;73.96
64644;BME280;51056;50.330;7.914;2023-07-31T01:37:36;100313.00;;;17.88;73.42
64644;BME280;51056;50.330;7.914;2023-07-31T01:40:41;100324.03;;;17.94;73.89
64644;BME280;51056;50.330;7.914;2023-07-31T01:43:46;100310.38;;;17.98;74.53
64644;BME280;51056;50.330;7.914;2023-07-31T01:46:49;100306.47;;;17.93;73.56
64644;BME280;51056;50.330;7.914;2023-07-31T01:49:53;100320.13;;;17.98;73.74
64644;BME280;51056;50.330;7.914;2023-07-31T01:52:56;100308.69;;;17.87;79.94
64644;BME280;51056;50.330;7.914;2023-07-31T01:56:01;100314.25;;;17.84;78.01
64644;BME280;51056;50.330;7.914;2023-07-31T01:59:04;100308.84;;;17.96;76.17
64644;BME280;51056;50.330;7.914;2023-07-31T02:02:07;100312.66;;;18.03;75.27
64644;BME280;51056;50.330;7.914;2023-07-31T02:05:14;100315.00;;;18.06;72.09
64644;BME280;51056;50.330;7.914;2023-07-31T02:08:17;100312.44;;;18.16;72.26
64644;BME280;51056;50.330;7.914;2023-07-31T02:11:20;100297.91;;;18.10;71.63
64644;BME280;51056;50.330;7.914;2023-07-31T02:14:27;100313.00;;;18.19;71.13
64644;BME280;51056;50.330;7.914;2023-07-31T02:17:31;100308.22;;;18.13;71.34
64644;BME280;51056;50.330;7.914;2023-07-31T02:20:34;100303.06;;;18.11;70.48
64644;BME280;51056;50.330;7.914;2023-07-31T02:23:38;100297.91;;;18.10;71.74
64644;BME280;51056;50.330;7.914;2023-07-31T02:26:42;100295.13;;;18.11;71.62
64644;BME280;51056;50.330;7.914;2023-07-31T02:29:46;100291.63;;;18.11;70.78
64644;BME280;51056;50.330;7.914;2023-07-31T02:32:49;100283.25;;;18.06;71.36
64644;BME280;51056;50.330;7.914;2023-07-31T02:35:53;100282.88;;;18.10;71.19
64644;BME280;51056;50.330;7.914;2023-07-31T02:38:59;100282.19;;;18.18;71.33
64644;BME280;51056;50.330;7.914;2023-07-31T02:42:03;100282.75;;;18.22;70.89
64644;BME280;51056;50.330;7.914;2023-07-31T02:45:08;100281.91;;;18.21;70.86
64644;BME280;51056;50.330;7.914;2023-07-31T02:48:15;100278.28;;;18.12;70.83
64644;BME280;51056;50.330;7.914;2023-07-31T02:51:18;100288.59;;;18.16;71.86
64644;BME280;51056;50.330;7.914;2023-07-31T02:54:23;100283.16;;;18.17;71.47
64644;BME280;51056;50.330;7.914;2023-07-31T02:57:26;100281.78;;;18.13;71.50
64644;BME280;51056;50.330;7.914;2023-07-31T03:00:30;100287.63;;;18.17;71.86
64644;BME280;51056;50.330;7.914;2023-07-31T03:03:33;100282.34;;;18.17;71.82
64644;BME280;51056;50.330;7.914;2023-07-31T03:06:39;100274.50;;;18.15;72.32
64644;BME280;51056;50.330;7.914;2023-07-31T03:09:42;100288.44;;;18.07;72.16
64644;BME280;51056;50.330;7.914;2023-07-31T03:12:47;100281.75;;;18.03;72.33
64644;BME280;51056;50.330;7.914;2023-07-31T03:15:53;100287.59;;;18.07;72.13
64644;BME280;51056;50.330;7.914;2023-07-31T03:18:59;100284.53;;;18.11;72.24
64644;BME280;51056;50.330;7.914;2023-07-31T03:22:03;100294.59;;;18.18;72.36
64644;BME280;51056;50.330;7.914;2023-07-31T03:25:06;100297.59;;;17.94;72.58
64644;BME280;51056;50.330;7.914;2023-07-31T03:28:13;100303.44;;;17.97;72.85
64644;BME280;51056;50.330;7.914;2023-07-31T03:31:17;100292.28;;;17.94;72.89
64644;BME280;51056;50.330;7.914;2023-07-31T03:34:21;100287.69;;;17.96;73.08
64644;BME280;51056;50.330;7.914;2023-07-31T03:37:24;100288.22;;;17.89;74.12
64644;BME280;51056;50.330;7.914;2023-07-31T03:40:27;100284.50;;;18.02;74.54
64644;BME280;51056;50.330;7.914;2023-07-31T03:43:31;100282.50;;;17.84;75.32
64644;BME280;51056;50.330;7.914;2023-07-31T03:46:34;100280.50;;;17.77;76.01
64644;BME280;51056;50.330;7.914;2023-07-31T03:49:38;100283.91;;;17.88;76.87
64644;BME280;51056;50.330;7.914;2023-07-31T03:52:42;100272.78;;;17.95;76.73
64644;BME280;51056;50.330;7.914;2023-07-31T03:55:45;100278.34;;;17.92;76.67
64644;BME280;51056;50.330;7.914;2023-07-31T03:58:48;100279.59;;;17.87;77.22
64644;BME280;51056;50.330;7.914;2023-07-31T04:01:51;100267.63;;;17.93;77.37
64644;BME280;51056;50.330;7.914;2023-07-31T04:04:55;100259.91;;;17.80;77.78
64644;BME280;51056;50.330;7.914;2023-07-31T04:07:59;100263.72;;;17.87;77.28
64644;BME280;51056;50.330;7.914;2023-07-31T04:11:02;100260.00;;;17.69;77.76
64644;BME280;51056;50.330;7.914;2023-07-31T04:14:05;100256.38;;;17.70;77.90
64644;BME280;51056;50.330;7.914;2023-07-31T04:17:08;100248.06;;;17.75;77.91
64644;BME280;51056;50.330;7.914;2023-07-31T04:20:12;100239.28;;;17.74;77.92
64644;BME280;51056;50.330;7.914;2023-07-31T04:23:15;100242.19;;;17.71;77.93
64644;BME280;51056;50.330;7.914;2023-07-31T04:26:20;100246.84;;;17.58;78.48
64644;BME280;51056;50.330;7.914;2023-07-31T04:29:23;100231.75;;;17.70;78.56
64644;BME280;51056;50.330;7.914;2023-07-31T04:32:27;100240.44;;;17.81;78.18
64644;BME280;51056;50.330;7.914;2023-07-31T04:35:35;100251.59;;;17.85;77.76
64644;BME280;51056;50.330;7.914;2023-07-31T04:38:39;100250.19;;;17.81;77.52
64644;BME280;51056;50.330;7.914;2023-07-31T04:41:43;100247.91;;;17.76;77.45
64644;BME280;51056;50.330;7.914;2023-07-31T04:44:47;100254.09;;;17.86;77.53
64644;BME280;51056;50.330;7.914;2023-07-31T04:47:50;100264.38;;;17.80;77.65
64644;BME280;51056;50.330;7.914;2023-07-31T04:50:53;100247.84;;;17.87;77.23
64644;BME280;51056;50.330;7.914;2023-07-31T04:53:57;100253.28;;;17.96;77.46
64644;BME280;51056;50.330;7.914;2023-07-31T04:57:00;100259.56;;;17.95;77.35
64644;BME280;51056;50.330;7.914;2023-07-31T05:00:05;100255.25;;;17.94;77.50
64644;BME280;51056;50.330;7.914;2023-07-31T05:03:09;100254.81;;;17.88;77.91
64644;BME280;51056;50.330;7.914;2023-07-31T05:06:14;100250.91;;;17.93;77.52
64644;BME280;51056;50.330;7.914;2023-07-31T05:09:18;100239.81;;;17.99;77.27
64644;BME280;51056;50.330;7.914;2023-07-31T05:12:21;100237.75;;;18.12;76.68
64644;BME280;51056;50.330;7.914;2023-07-31T05:15:25;100234.25;;;18.11;77.41
64644;BME280;51056;50.330;7.914;2023-07-31T05:18:28;100235.53;;;18.17;76.51
64644;BME280;51056;50.330;7.914;2023-07-31T05:21:31;100237.75;;;18.12;77.09
64644;BME280;51056;50.330;7.914;2023-07-31T05:24:35;100241.94;;;18.24;76.69
64644;BME280;51056;50.330;7.914;2023-07-31T05:27:38;100233.88;;;18.26;76.73
64644;BME280;51056;50.330;7.914;2023-07-31T05:30:41;100218.97;;;18.34;76.12
64644;BME280;51056;50.330;7.914;2023-07-31T05:33:45;100229.97;;;18.20;76.38
64644;BME280;51056;50.330;7.914;2023-07-31T05:36:48;100243.47;;;18.17;76.71
64644;BME280;51056;50.330;7.914;2023-07-31T05:39:52;100243.50;;;18.27;76.61
64644;BME280;51056;50.330;7.914;2023-07-31T05:42:55;100244.19;;;18.19;76.74
64644;BME280;51056;50.330;7.914;2023-07-31T05:45:59;100226.06;;;18.24;76.46
64644;BME280;51056;50.330;7.914;2023-07-31T05:49:03;100222.59;;;18.33;76.29
64644;BME280;51056;50.330;7.914;2023-07-31T05:52:12;100217.75;;;18.39;75.66
64644;BME280;51056;50.330;7.914;2023-07-31T05:55:16;100218.44;;;18.41;76.10
64644;BME280;51056;50.330;7.914;2023-07-31T05:58:21;100210.22;;;18.44;75.37
64644;BME280;51056;50.330;7.914;2023-07-31T06:01:24;100202.81;;;18.47;75.64
64644;BME280;51056;50.330;7.914;2023-07-31T06:04:27;100199.63;;;18.44;74.98
64644;BME280;51056;50.330;7.914;2023-07-31T06:07:31;100210.22;;;18.53;75.31
64644;BME280;51056;50.330;7.914;2023-07-31T06:10:35;100211.06;;;18.44;75.18
64644;BME280;51056;50.330;7.914;2023-07-31T06:13:38;100207.72;;;18.52;74.92
64644;BME280;51056;50.330;7.914;2023-07-31T06:16:41;100205.78;;;18.54;74.65
64644;BME280;51056;50.330;7.914;2023-07-31T06:19:47;100208.81;;;18.59;74.27
64644;BME280;51056;50.330;7.914;2023-07-31T06:22:50;100206.06;;;18.61;73.80
64644;BME280;51056;50.330;7.914;2023-07-31T06:25:53;100206.47;;;18.66;73.53
64644;BME280;51056;50.330;7.914;2023-07-31T06:28:57;100213.56;;;18.65;73.65
64644;BME280;51056;50.330;7.914;2023-07-31T06:32:01;100208.81;;;18.69;73.31
64644;BME280;51056;50.330;7.914;2023-07-31T06:35:05;100199.34;;;18.56;73.05
64644;BME280;51056;50.330;7.914;2023-07-31T06:38:08;100185.81;;;18.69;73.00
64644;BME280;51056;50.330;7.914;2023-07-31T06:41:12;100190.72;;;18.84;72.24
64644;BME280;51056;50.330;7.914;2023-07-31T06:44:16;100186.81;;;18.88;71.84
64644;BME280;51056;50.330;7.914;2023-07-31T06:47:19;100187.63;;;18.98;71.57
64644;BME280;51056;50.330;7.914;2023-07-31T06:50:25;100183.75;;;19.02;71.11
64644;BME280;51056;50.330;7.914;2023-07-31T06:53:29;100180.66;;;18.97;71.54
64644;BME280;51056;50.330;7.914;2023-07-31T06:56:33;100176.47;;;18.94;72.37
64644;BME280;51056;50.330;7.914;2023-07-31T06:59:38;100178.75;;;18.79;72.36
64644;BME280;51056;50.330;7.914;2023-07-31T07:02:43;100178.19;;;18.95;73.49
64644;BME280;51056;50.330;7.914;2023-07-31T07:05:49;100163.22;;;19.04;73.67
64644;BME280;51056;50.330;7.914;2023-07-31T07:08:52;100170.59;;;19.10;75.14
64644;BME280;51056;50.330;7.914;2023-07-31T07:11:59;100173.00;;;18.94;74.59
64644;BME280;51056;50.330;7.914;2023-07-31T07:15:02;100171.06;;;18.96;73.71
64644;BME280;51056;50.330;7.914;2023-07-31T07:18:08;100151.09;;;18.92;74.58
64644;BME280;51056;50.330;7.914;2023-07-31T07:21:13;100153.59;;;19.03;74.80
64644;BME280;51056;50.330;7.914;2023-07-31T07:24:18;100152.63;;;18.94;75.49
64644;BME280;51056;50.330;7.914;2023-07-31T07:27:21;100156.38;;;19.01;77.60
64644;BME280;51056;50.330;7.914;2023-07-31T07:30:25;100160.81;;;19.11;77.36
64644;BME280;51056;50.330;7.914;2023-07-31T07:33:28;100160.53;;;19.14;76.07
64644;BME280;51056;50.330;7.914;2023-07-31T07:36:31;100160.00;;;19.10;75.35
64644;BME280;51056;50.330;7.914;2023-07-31T07:39:36;100155.09;;;19.15;74.83
64644;BME280;51056;50.330;7.914;2023-07-31T07:42:41;100149.59;;;19.26;74.24
64644;BME280;51056;50.330;7.914;2023-07-31T07:45:46;100144.56;;;19.33;74.40
64644;BME280;51056;50.330;7.914;2023-07-31T07:48:49;100142.44;;;19.37;72.04
64644;BME280;51056;50.330;7.914;2023-07-31T07:51:52;100135.97;;;19.49;71.28
64644;BME280;51056;50.330;7.914;2023-07-31T07:54:56;100127.13;;;19.58;71.25
64644;BME280;51056;50.330;7.914;2023-07-31T07:57:59;100129.78;;;19.58;69.35
64644;BME280;51056;50.330;7.914;2023-07-31T08:01:03;100133.25;;;19.41;68.48
64644;BME280;51056;50.330;7.914;2023-07-31T08:04:06;100126.34;;;19.48;68.97
64644;BME280;51056;50.330;7.914;2023-07-31T08:07:13;100121.59;;;19.51;68.52
64644;BME280;51056;50.330;7.914;2023-07-31T08:10:20;100127.44;;;19.55;69.19
64644;BME280;51056;50.330;7.914;2023-07-31T08:13:23;100128.81;;;19.59;69.49
64644;BME280;51056;50.330;7.914;2023-07-31T08:16:27;100132.16;;;19.61;68.96
64644;BME280;51056;50.330;7.914;2023-07-31T08:19:33;100142.50;;;19.64;69.24
64644;BME280;51056;50.330;7.914;2023-07-31T08:22:36;100138.56;;;19.59;68.88
64644;BME280;51056;50.330;7.914;2023-07-31T08:25:40;100133.84;;;19.52;69.54
64644;BME280;51056;50.330;7.914;2023-07-31T08:28:44;100130.00;;;19.47;68.46
64644;BME280;51056;50.330;7.914;2023-07-31T08:31:47;100130.00;;;19.47;69.67
64644;BME280;51056;50.330;7.914;2023-07-31T08:34:51;100135.97;;;19.49;70.69
64644;BME280;51056;50.330;7.914;2023-07-31T08:37:54;100138.13;;;19.36;70.23
64644;BME280;51056;50.330;7.914;2023-07-31T08:40:57;100136.34;;;19.26;71.38
64644;BME280;51056;50.330;7.914;2023-07-31T08:44:07;100131.22;;;19.25;71.94
64644;BME280;51056;50.330;7.914;2023-07-31T08:47:10;100136.88;;;19.02;71.69
64644;BME280;51056;50.330;7.914;2023-07-31T08:50:19;100136.66;;;19.23;74.14
64644;BME280;51056;50.330;7.914;2023-07-31T08:53:22;100142.09;;;19.22;77.58
64644;BME280;51056;50.330;7.914;2023-07-31T08:56:27;100147.72;;;19.09;79.26
64644;BME280;51056;50.330;7.914;2023-07-31T08:59:31;100138.78;;;19.10;78.82
64644;BME280;51056;50.330;7.914;2023-07-31T09:02:57;100135.34;;;19.00;80.22
64644;BME280;51056;50.330;7.914;2023-07-31T09:06:02;100136.31;;;18.99;80.92
64644;BME280;51056;50.330;7.914;2023-07-31T09:09:10;100137.91;;;19.19;81.96
64644;BME280;51056;50.330;7.914;2023-07-31T09:12:18;100134.25;;;19.30;83.50
64644;BME280;51056;50.330;7.914;2023-07-31T09:15:23;100127.00;;;19.32;83.85
64644;BME280;51056;50.330;7.914;2023-07-31T09:18:30;100149.34;;;19.20;83.08
64644;BME280;51056;50.330;7.914;2023-07-31T09:21:55;100128.16;;;19.20;83.44
64644;BME280;51056;50.330;7.914;2023-07-31T09:25:17;100121.44;;;19.25;83.22
64644;BME280;51056;50.330;7.914;2023-07-31T09:28:30;100116.84;;;19.27;86.05
64644;BME280;51056;50.330;7.914;2023-07-31T09:31:43;100112.50;;;19.26;86.29
64644;BME280;51056;50.330;7.914;2023-07-31T09:34:46;100116.13;;;19.25;87.06
64644;BME280;51056;50.330;7.914;2023-07-31T09:38:02;100112.78;;;19.23;87.19
64644;BME280;51056;50.330;7.914;2023-07-31T09:41:08;100105.28;;;19.19;87.69
64644;BME280;51056;50.330;7.914;2023-07-31T09:44:12;100105.41;;;19.17;88.48
64644;BME280;51056;50.330;7.914;2023-07-31T09:47:23;100105.03;;;19.12;90.64
64644;BME280;51056;50.330;7.914;2023-07-31T09:50:30;100097.75;;;19.14;90.09
64644;BME280;51056;50.330;7.914;2023-07-31T09:53:35;100096.97;;;19.04;89.08
64644;BME280;51056;50.330;7.914;2023-07-31T09:56:42;100096.69;;;19.07;89.57
64644;BME280;51056;50.330;7.914;2023-07-31T09:59:47;100086.88;;;19.17;91.39
64644;BME280;51056;50.330;7.914;2023-07-31T10:02:52;100088.03;;;19.15;91.96
64644;BME280;51056;50.330;7.914;2023-07-31T10:06:00;100088.69;;;19.17;90.74
64644;BME280;51056;50.330;7.914;2023-07-31T10:09:06;100085.22;;;19.16;93.17
64644;BME280;51056;50.330;7.914;2023-07-31T10:12:12;100086.19;;;19.15;93.15
64644;BME280;51056;50.330;7.914;2023-07-31T10:15:18;100079.06;;;19.16;88.50
64644;BME280;51056;50.330;7.914;2023-07-31T10:18:22;100075.97;;;19.20;84.34
64644;BME280;51056;50.330;7.914;2023-07-31T10:21:26;100072.19;;;19.23;83.92
64644;BME280;51056;50.330;7.914;2023-07-31T10:24:30;100080.91;;;19.15;85.88
64644;BME280;51056;50.330;7.914;2023-07-31T10:27:35;100072.25;;;19.13;80.74
64644;BME280;51056;50.330;7.914;2023-07-31T10:30:39;100073.53;;;19.09;75.70
64644;BME280;51056;50.330;7.914;2023-07-31T10:33:45;100075.00;;;19.21;78.65
64644;BME280;51056;50.330;7.914;2023-07-31T10:36:48;100058.00;;;19.14;76.96
64644;BME280;51056;50.330;7.914;2023-07-31T10:42:59;100060.94;;;19.21;79.83
64644;BME280;51056;50.330;7.914;2023-07-31T10:46:08;100050.56;;;19.27;77.64
64644;BME280;51056;50.330;7.914;2023-07-31T10:49:21;100055.28;;;19.34;77.97
64644;BME280;51056;50.330;7.914;2023-07-31T10:52:24;100043.53;;;19.36;78.62
64644;BME280;51056;50.330;7.914;2023-07-31T10:55:33;100048.53;;;19.39;77.85
64644;BME280;51056;50.330;7.914;2023-07-31T10:58:37;100050.88;;;19.24;75.79
64644;BME280;51056;50.330;7.914;2023-07-31T11:01:54;100040.25;;;19.24;76.95
64644;BME280;51056;50.330;7.914;2023-07-31T11:05:18;100034.25;;;19.22;78.95
64644;BME280;51056;50.330;7.914;2023-07-31T11:08:43;100032.38;;;19.33;79.39
64644;BME280;51056;50.330;7.914;2023-07-31T11:11:46;100019.31;;;19.49;80.64
64644;BME280;51056;50.330;7.914;2023-07-31T11:14:56;100015.13;;;19.74;80.00
64644;BME280;51056;50.330;7.914;2023-07-31T11:18:03;100002.81;;;19.91;73.25
64644;BME280;51056;50.330;7.914;2023-07-31T11:21:16;99996.19;;;20.13;69.63
64644;BME280;51056;50.330;7.914;2023-07-31T11:24:20;99994.06;;;20.16;64.39
64644;BME280;51056;50.330;7.914;2023-07-31T11:27:27;100000.25;;;20.25;65.28
64644;BME280;51056;50.330;7.914;2023-07-31T11:30:31;100003.75;;;20.26;64.15
64644;BME280;51056;50.330;7.914;2023-07-31T11:33:36;100007.91;;;20.28;63.74
64644;BME280;51056;50.330;7.914;2023-07-31T11:36:40;100006.09;;;20.29;62.71
64644;BME280;51056;50.330;7.914;2023-07-31T11:40:01;100014.44;;;20.34;62.19
64644;BME280;51056;50.330;7.914;2023-07-31T11:43:04;100014.25;;;20.35;61.63
64644;BME280;51056;50.330;7.914;2023-07-31T11:46:07;100009.84;;;20.44;61.82
64644;BME280;51056;50.330;7.914;2023-07-31T11:49:14;99996.56;;;20.44;61.14
64644;BME280;51056;50.330;7.914;2023-07-31T11:52:19;99998.22;;;20.45;61.63
64644;BME280;51056;50.330;7.914;2023-07-31T11:55:28;99986.56;;;20.56;60.80
64644;BME280;51056;50.330;7.914;2023-07-31T11:58:34;99986.31;;;20.75;60.51
64644;BME280;51056;50.330;7.914;2023-07-31T12:01:38;99982.00;;;21.17;59.45
64644;BME280;51056;50.330;7.914;2023-07-31T12:04:43;99978.44;;;21.50;58.75
64644;BME280;51056;50.330;7.914;2023-07-31T12:07:50;99959.66;;;21.85;57.90
64644;BME280;51056;50.330;7.914;2023-07-31T12:10:54;99972.31;;;21.82;57.10
64644;BME280;51056;50.330;7.914;2023-07-31T12:13:57;99972.28;;;21.66;57.24
64644;BME280;51056;50.330;7.914;2023-07-31T12:17:04;99966.47;;;21.46;58.08
64644;BME280;51056;50.330;7.914;2023-07-31T12:20:08;99964.47;;;21.56;58.41
64644;BME280;51056;50.330;7.914;2023-07-31T12:23:21;99957.84;;;21.61;57.67
64644;BME280;51056;50.330;7.914;2023-07-31T12:26:35;99956.84;;;21.70;57.48
64644;BME280;51056;50.330;7.914;2023-07-31T12:29:39;99962.16;;;21.78;57.70
64644;BME280;51056;50.330;7.914;2023-07-31T12:32:43;99952.50;;;21.93;56.24
64644;BME280;51056;50.330;7.914;2023-07-31T12:35:48;99939.03;;;22.19;55.33
64644;BME280;51056;50.330;7.914;2023-07-31T12:38:52;99940.69;;;22.12;55.39
64644;BME280;51056;50.330;7.914;2023-07-31T12:41:59;99932.81;;;22.43;55.92
64644;BME280;51056;50.330;7.914;2023-07-31T12:45:02;99939.53;;;22.23;55.56
64644;BME280;51056;50.330;7.914;2023-07-31T12:48:07;99934.53;;;22.28;55.26
64644;BME280;51056;50.330;7.914;2023-07-31T12:51:10;99927.50;;;22.27;55.61
64644;BME280;51056;50.330;7.914;2023-07-31T12:54:15;99938.34;;;22.09;55.29
64644;BME280;51056;50.330;7.914;2023-07-31T12:57:49;99940.53;;;22.22;55.78
64644;BME280;51056;50.330;7.914;2023-07-31T13:01:20;99944.00;;;22.22;55.24
64644;BME280;51056;50.330;7.914;2023-07-31T13:04:26;99923.38;;;22.16;55.54
64644;BME280;51056;50.330;7.914;2023-07-31T13:07:30;99926.53;;;22.12;55.58
64644;BME280;51056;50.330;7.914;2023-07-31T13:10:34;99934.53;;;21.79;56.47
64644;BME280;51056;50.330;7.914;2023-07-31T13:13:38;99920.91;;;21.90;56.19
64644;BME280;51056;50.330;7.914;2023-07-31T13:16:42;99920.56;;;21.93;56.79
64644;BME280;51056;50.330;7.914;2023-07-31T13:19:45;99913.91;;;21.97;57.02
64644;BME280;51056;50.330;7.914;2023-07-31T13:22:52;99926.91;;;21.68;57.07
64644;BME280;51056;50.330;7.914;2023-07-31T13:25:55;99946.19;;;21.53;57.17
64644;BME280;51056;50.330;7.914;2023-07-31T13:28:58;99934.91;;;21.51;58.06
64644;BME280;51056;50.330;7.914;2023-07-31T13:32:02;99934.06;;;21.51;57.51
64644;BME280;51056;50.330;7.914;2023-07-31T13:35:06;99934.88;;;21.43;57.72
64644;BME280;51056;50.330;7.914;2023-07-31T13:38:09;99932.53;;;21.40;58.04
64644;BME280;51056;50.330;7.914;2023-07-31T13:41:13;99948.50;;;21.40;58.17
64644;BME280;51056;50.330;7.914;2023-07-31T13:44:17;99942.19;;;21.41;58.46
64644;BME280;51056;50.330;7.914;2023-07-31T13:47:21;99941.47;;;21.31;57.92
64644;BME280;51056;50.330;7.914;2023-07-31T13:50:24;99941.16;;;21.26;58.53
64644;BME280;51056;50.330;7.914;2023-07-31T13:53:29;99927.34;;;21.22;58.85
64644;BME280;51056;50.330;7.914;2023-07-31T13:56:33;99932.31;;;21.17;59.19
64644;BME280;51056;50.330;7.914;2023-07-31T13:59:36;99915.97;;;20.96;59.37
64644;BME280;51056;50.330;7.914;2023-07-31T14:02:40;99909.66;;;20.88;60.29
64644;BME280;51056;50.330;7.914;2023-07-31T14:05:43;99911.16;;;20.91;60.77
64644;BME280;51056;50.330;7.914;2023-07-31T14:08:47;99916.84;;;21.04;60.57
64644;BME280;51056;50.330;7.914;2023-07-31T14:11:51;99917.34;;;21.08;60.62
64644;BME280;51056;50.330;7.914;2023-07-31T14:14:54;99915.19;;;21.11;60.57
64644;BME280;51056;50.330;7.914;2023-07-31T14:17:57;99924.16;;;21.10;60.30
64644;BME280;51056;50.330;7.914;2023-07-31T14:21:01;99909.09;;;21.60;59.06
64644;BME280;51056;50.330;7.914;2023-07-31T14:24:04;99872.63;;;22.10;57.42
64644;BME280;51056;50.330;7.914;2023-07-31T14:27:07;99864.66;;;22.57;55.63
64644;BME280;51056;50.330;7.914;2023-07-31T14:30:12;99872.31;;;22.91;54.85
64644;BME280;51056;50.330;7.914;2023-07-31T14:33:16;99877.91;;;23.05;53.96
64644;BME280;51056;50.330;7.914;2023-07-31T14:36:19;99881.94;;;23.70;53.35
64644;BME280;51056;50.330;7.914;2023-07-31T14:39:23;99885.19;;;24.83;49.05
64644;BME280;51056;50.330;7.914;2023-07-31T14:42:26;99884.44;;;26.86;44.61
64644;BME280;51056;50.330;7.914;2023-07-31T14:45:32;99887.19;;;29.29;40.30
64644;BME280;51056;50.330;7.914;2023-07-31T14:48:36;99884.59;;;30.16;38.29
64644;BME280;51056;50.330;7.914;2023-07-31T14:51:39;99878.91;;;28.47;39.82
64644;BME280;51056;50.330;7.914;2023-07-31T14:54:43;99898.53;;;28.55;39.73
64644;BME280;51056;50.330;7.914;2023-07-31T14:57:46;99909.97;;;24.18;48.79
64644;BME280;51056;50.330;7.914;2023-07-31T15:00:50;99908.22;;;23.81;51.10
64644;BME280;51056;50.330;7.914;2023-07-31T15:03:53;99908.50;;;23.17;53.11
64644;BME280;51056;50.330;7.914;2023-07-31T15:06:56;99898.63;;;22.55;54.46
64644;BME280;51056;50.330;7.914;2023-07-31T15:10:00;99908.09;;;21.86;56.75
64644;BME280;51056;50.330;7.914;2023-07-31T15:13:04;99918.91;;;21.84;56.72
64644;BME280;51056;50.330;7.914;2023-07-31T15:16:08;99915.75;;;21.56;57.71
64644;BME280;51056;50.330;7.914;2023-07-31T15:19:16;99916.25;;;21.35;58.88
64644;BME280;51056;50.330;7.914;2023-07-31T15:22:19;99921.53;;;21.27;59.03
64644;BME280;51056;50.330;7.914;2023-07-31T15:25:22;99914.09;;;20.80;60.65
64644;BME280;51056;50.330;7.914;2023-07-31T15:28:25;99930.91;;;20.88;60.92
64644;BME280;51056;50.330;7.914;2023-07-31T15:31:29;99949.56;;;20.62;61.43
64644;BME280;51056;50.330;7.914;2023-07-31T15:34:33;99955.75;;;20.45;62.23
64644;BME280;51056;50.330;7.914;2023-07-31T15:37:37;99963.63;;;20.29;62.34
64644;BME280;51056;50.330;7.914;2023-07-31T15:40:45;99929.69;;;20.14;62.72
64644;BME280;51056;50.330;7.914;2023-07-31T15:43:49;99921.06;;;20.12;63.14
64644;BME280;51056;50.330;7.914;2023-07-31T15:46:53;99919.03;;;20.06;63.33
64644;BME280;51056;50.330;7.914;2023-07-31T15:49:57;99892.38;;;19.90;63.32
64644;BME280;51056;50.330;7.914;2023-07-31T15:53:00;99908.69;;;19.95;64.18
64644;BME280;51056;50.330;7.914;2023-07-31T15:56:04;99887.88;;;20.16;62.99
64644;BME280;51056;50.330;7.914;2023-07-31T15:59:07;99877.53;;;20.31;62.61
64644;BME280;51056;50.330;7.914;2023-07-31T16:02:10;99896.84;;;20.15;63.02
64644;BME280;51056;50.330;7.914;2023-07-31T16:05:14;99878.91;;;20.09;63.37
64644;BME280;51056;50.330;7.914;2023-07-31T16:08:18;99863.47;;;20.05;63.30
64644;BME280;51056;50.330;7.914;2023-07-31T16:11:21;99858.59;;;20.00;63.70
64644;BME280;51056;50.330;7.914;2023-07-31T16:14:24;99852.53;;;20.08;63.20
64644;BME280;51056;50.330;7.914;2023-07-31T16:17:28;99853.56;;;19.89;63.63